Time;durP1;ratioP1;P1;durP2;ratioP2;P2;SDS_P1;SDS_P2;PMS_P1;PMS_P2;Temp;Humidity;BMP_temperature;BMP_pressure;BME280_temperature;BME280_humidity;BME280_pressure;Samples;Min_cycle;Max_cycle;Signal;HPM_P1;HPM_P2
2022/09/05 00:01:41;;;;;;;6.83;6.13;;;16.40;99.90;;;;;;5120393;28;20405;-55
2022/09/05 00:04:15;;;;;;;7.47;6.60;;;16.40;99.90;;;;;;5121114;28;20462;-55
2022/09/05 00:06:51;;;;;;;10.30;6.00;;;16.30;99.90;;;;;;5120982;27;20509;-53
2022/09/05 00:09:44;;;;;;;7.13;6.20;;;16.30;99.90;;;;;;5139194;27;20791;-57
2022/09/05 00:12:13;;;;;;;7.10;6.40;;;16.30;99.90;;;;;;5141706;27;20438;-54
2022/09/05 00:14:54;;;;;;;6.37;5.87;;;16.40;99.90;;;;;;5141486;27;20514;-53
2022/09/05 00:17:30;;;;;;;7.33;6.13;;;16.40;99.90;;;;;;5140432;27;20439;-56
2022/09/05 00:20:07;;;;;;;6.20;5.60;;;16.40;95.70;;;;;;5121008;27;20976;-52
2022/09/05 00:22:46;;;;;;;6.40;5.20;;;16.30;46.80;;;;;;5121478;27;20459;-55
2022/09/05 00:25:32;;;;;;;7.20;6.50;;;16.30;53.70;;;;;;5120609;28;20785;-54
2022/09/05 00:28:15;;;;;;;6.73;6.13;;;16.30;59.70;;;;;;5122639;27;20509;-52
2022/09/05 00:31:03;;;;;;;6.43;5.93;;;16.20;93.20;;;;;;5140880;27;20557;-55
2022/09/05 00:33:42;;;;;;;6.90;6.20;;;16.10;99.90;;;;;;5141019;27;20539;-58
2022/09/05 00:36:24;;;;;;;7.60;6.70;;;16.10;99.90;;;;;;5141554;27;20450;-53
2022/09/05 00:39:01;;;;;;;6.37;5.70;;;16.00;99.90;;;;;;5135017;27;20745;-51
2022/09/05 00:41:28;;;;;;;6.50;5.90;;;16.00;99.90;;;;;;5121789;27;20523;-51
2022/09/05 00:43:57;;;;;;;6.80;6.20;;;16.00;99.90;;;;;;5120524;28;20459;-48
2022/09/05 00:46:27;;;;;;;6.90;6.20;;;16.00;99.90;;;;;;5120730;28;20459;-56
2022/09/05 00:49:09;;;;;;;6.00;5.40;;;16.00;99.90;;;;;;5121107;27;20517;-52
2022/09/05 00:51:44;;;;;;;5.87;5.37;;;15.90;99.90;;;;;;5120243;28;20470;-56
2022/09/05 00:54:40;;;;;;;6.57;5.97;;;16.00;99.90;;;;;;5121560;27;20516;-51
2022/09/05 00:57:32;;;;;;;10.33;5.87;;;15.90;99.90;;;;;;5113374;28;20477;-52
2022/09/05 01:00:17;;;;;;;6.73;6.03;;;15.90;99.90;;;;;;5126702;27;20557;-53
2022/09/05 01:03:36;;;;;;;7.00;6.23;;;15.90;99.90;;;;;;5138667;27;20466;-53
2022/09/05 01:06:17;;;;;;;8.33;6.60;;;15.90;99.90;;;;;;5112696;27;20561;-57
2022/09/05 01:09:11;;;;;;;6.50;5.87;;;15.80;99.90;;;;;;5140231;27;20940;-56
2022/09/05 01:11:52;;;;;;;6.60;6.00;;;15.70;99.90;;;;;;5132038;27;20498;-55
2022/09/05 01:14:42;;;;;;;7.03;6.40;;;15.70;99.90;;;;;;5140085;27;20544;-54
2022/09/05 01:17:27;;;;;;;7.50;6.80;;;15.70;99.90;;;;;;5131973;27;20810;-51
2022/09/05 01:20:16;;;;;;;6.47;5.87;;;15.80;99.90;;;;;;5118895;28;20513;-56
2022/09/05 01:23:14;;;;;;;6.43;5.93;;;15.70;99.90;;;;;;5118901;27;20528;-51
2022/09/05 01:25:58;;;;;;;9.10;6.10;;;15.80;99.90;;;;;;5119800;27;20499;-55
2022/09/05 01:28:35;;;;;;;7.23;5.87;;;15.80;99.90;;;;;;5131308;27;20525;-52
2022/09/05 01:31:12;;;;;;;6.50;5.70;;;15.70;99.90;;;;;;5122637;27;20545;-54
2022/09/05 01:33:49;;;;;;;6.30;5.80;;;15.80;99.90;;;;;;5139708;27;20793;-56
2022/09/05 01:36:32;;;;;;;6.60;5.63;;;15.80;99.90;;;;;;5137007;27;20933;-53
2022/09/05 01:39:04;;;;;;;6.80;6.20;;;15.70;99.90;;;;;;5119791;27;20498;-50
2022/09/05 01:41:44;;;;;;;6.80;6.20;;;15.70;99.90;;;;;;5130507;27;20839;-54
2022/09/05 01:44:39;;;;;;;6.77;6.17;;;15.80;99.90;;;;;;5140143;27;20549;-55
2022/09/05 01:47:35;;;;;;;6.47;5.37;;;15.70;99.90;;;;;;5139650;27;20459;-57
2022/09/05 01:50:12;;;;;;;5.50;5.10;;;15.70;99.90;;;;;;5120202;27;20558;-58
2022/09/05 01:52:57;;;;;;;6.03;5.50;;;15.70;95.70;;;;;;5119927;27;20455;-57
2022/09/05 01:55:39;;;;;;;7.10;6.50;;;15.70;48.70;;;;;;5119112;28;20466;-58
2022/09/05 01:58:16;;;;;;;6.67;6.07;;;15.70;70.40;;;;;;5118138;28;20578;-56
2022/09/05 02:00:56;;;;;;;5.93;5.33;;;15.70;52.50;;;;;;5118328;28;21024;-55
2022/09/05 02:03:37;;;;;;;6.77;6.00;;;15.70;71.90;;;;;;5118893;27;20442;-55
2022/09/05 02:06:36;;;;;;;7.07;5.60;;;15.80;97.90;;;;;;5118502;28;20470;-53
2022/09/05 02:09:29;;;;;;;6.47;5.43;;;15.80;61.20;;;;;;5119214;27;20863;-57
2022/09/05 02:11:58;;;;;;;6.70;6.10;;;15.80;72.40;;;;;;5121864;27;20434;-54
2022/09/05 02:14:35;;;;;;;8.33;5.60;;;15.80;71.30;;;;;;5118309;28;20833;-56
2022/09/05 02:17:19;;;;;;;5.87;5.30;;;15.90;57.00;;;;;;5118751;28;20450;-58
2022/09/05 02:19:52;;;;;;;6.70;6.10;;;16.00;47.80;;;;;;5118019;27;20561;-54
2022/09/05 02:22:22;;;;;;;8.13;5.20;;;15.90;10.30;;;;;;5119828;27;20468;-54
2022/09/05 02:24:56;;;;;;;6.23;5.30;;;16.00;10.00;;;;;;5118447;28;20517;-54
2022/09/05 02:27:30;;;;;;;5.87;5.37;;;15.90;21.20;;;;;;5125248;27;20546;-54
2022/09/05 02:30:07;;;;;;;6.73;6.13;;;15.90;88.70;;;;;;5138054;27;20458;-58
2022/09/05 02:32:51;;;;;;;5.87;5.37;;;15.90;99.90;;;;;;5138515;27;20466;-55
2022/09/05 02:35:24;;;;;;;6.30;5.80;;;16.00;99.90;;;;;;5136487;27;20488;-53
2022/09/05 02:37:55;;;;;;;6.63;5.93;;;16.00;99.90;;;;;;5138953;27;20549;-55
2022/09/05 02:40:31;;;;;;;5.90;5.40;;;16.10;99.90;;;;;;5135528;27;20503;-56
2022/09/05 02:43:07;;;;;;;6.33;5.83;;;16.10;99.90;;;;;;5118105;28;20483;-53
2022/09/05 02:45:43;;;;;;;6.00;5.50;;;16.10;66.90;;;;;;5118148;28;20804;-52
2022/09/05 02:48:23;;;;;;;6.80;6.20;;;16.10;40.30;;;;;;5118432;28;20531;-57
2022/09/05 02:51:03;;;;;;;6.73;5.97;;;16.10;36.60;;;;;;5118263;27;20555;-52
2022/09/05 02:53:32;;;;;;;7.50;5.37;;;16.20;17.20;;;;;;5119052;27;20842;-51
2022/09/05 02:56:13;;;;;;;5.70;5.20;;;16.20;2.70;;;;;;5118189;28;20803;-53
2022/09/05 02:58:58;;;;;;;5.70;5.20;;;16.20;1.00;;;;;;5117010;28;20873;-56
2022/09/05 03:01:38;;;;;;;5.90;5.40;;;16.20;1.00;;;;;;5120722;27;20509;-52
2022/09/05 03:04:22;;;;;;;5.47;5.00;;;16.20;1.00;;;;;;5118271;28;20460;-51
2022/09/05 03:07:00;;;;;;;5.60;5.10;;;16.20;1.00;;;;;;5117359;27;20494;-57
2022/09/05 03:09:47;;;;;;;5.90;5.40;;;16.30;1.00;;;;;;5137430;27;20523;-53
2022/09/05 03:13:02;;;;;;;6.10;5.50;;;16.30;1.00;;;;;;5134123;27;20520;-54
2022/09/05 03:16:07;;;;;;;5.13;4.70;;;16.10;1.00;;;;;;5079286;27;20530;-57
2022/09/05 03:19:31;;;;;;;7.87;5.47;;;16.10;29.90;;;;;;5116101;28;20483;-52
2022/09/05 03:22:46;;;;;;;7.10;6.30;;;16.10;31.90;;;;;;5067721;27;20531;-55
2022/09/05 03:25:43;;;;;;;5.77;5.27;;;16.10;48.40;;;;;;5134903;28;20462;-52
2022/09/05 03:28:52;;;;;;;6.10;5.50;;;16.20;47.30;;;;;;5118537;28;20509;-52
2022/09/05 03:31:39;;;;;;;7.70;6.83;;;16.30;1.00;;;;;;5127462;27;20839;-55
2022/09/05 03:34:48;;;;;;;5.70;5.20;;;16.20;1.00;;;;;;5128857;27;20520;-55
2022/09/05 03:37:42;;;;;;;6.30;5.80;;;16.30;1.00;;;;;;5135696;27;20499;-56
2022/09/05 03:40:43;;;;;;;6.27;5.67;;;16.30;1.00;;;;;;5124450;27;20574;-56
2022/09/05 03:43:50;;;;;;;6.07;5.47;;;16.30;1.00;;;;;;5117418;27;20455;-55
2022/09/05 03:46:48;;;;;;;6.17;5.67;;;16.20;1.00;;;;;;5099322;27;20542;-55
2022/09/05 03:49:40;;;;;;;5.97;5.50;;;16.20;1.00;;;;;;5121290;28;20466;-55
2022/09/05 03:52:23;;;;;;;5.93;5.33;;;16.20;1.00;;;;;;5121509;28;20855;-55
2022/09/05 03:55:30;;;;;;;5.30;4.80;;;16.10;1.00;;;;;;5135242;27;20911;-54
2022/09/05 03:58:15;;;;;;;5.93;5.43;;;16.10;1.00;;;;;;5116767;27;20896;-55
2022/09/05 04:00:47;;;;;;;5.93;5.33;;;16.10;1.00;;;;;;5126910;27;20483;-52
2022/09/05 04:03:27;;;;;;;5.60;4.73;;;16.00;1.00;;;;;;5121367;28;20460;-50
2022/09/05 04:06:06;;;;;;;6.17;5.57;;;16.00;1.00;;;;;;5138942;27;20548;-49
2022/09/05 04:08:44;;;;;;;5.50;5.00;;;15.80;1.00;;;;;;5140278;27;20478;-51
2022/09/05 04:11:16;;;;;;;6.60;6.03;;;15.80;1.00;;;;;;5141784;27;20476;-51
2022/09/05 04:13:49;;;;;;;5.83;5.23;;;15.80;1.00;;;;;;5139139;27;20586;-51
2022/09/05 04:16:20;;;;;;;10.33;7.67;;;15.70;7.60;;;;;;5137037;27;20553;-56
2022/09/05 04:18:53;;;;;;;5.80;5.30;;;15.70;58.60;;;;;;5141540;27;20437;-50
2022/09/05 04:21:25;;;;;;;5.93;5.43;;;15.60;39.00;;;;;;5141334;27;20462;-52
2022/09/05 04:24:02;;;;;;;6.17;5.20;;;15.60;64.40;;;;;;5140775;27;20480;-52
2022/09/05 04:26:57;;;;;;;5.53;5.03;;;15.60;95.00;;;;;;5134852;27;20467;-56
2022/09/05 04:29:35;;;;;;;6.57;5.03;;;15.50;70.70;;;;;;5140347;27;20520;-54
2022/09/05 04:32:15;;;;;;;5.67;5.17;;;15.60;87.20;;;;;;5141483;27;20590;-51
2022/09/05 04:35:05;;;;;;;6.67;5.90;;;15.60;66.80;;;;;;5141335;27;20516;-53
2022/09/05 04:37:42;;;;;;;7.60;6.47;;;15.50;80.50;;;;;;5129581;27;20441;-57
2022/09/05 04:40:42;;;;;;;6.10;5.33;;;15.50;92.10;;;;;;5119839;27;20504;-54
2022/09/05 04:43:19;;;;;;;6.23;5.63;;;15.50;99.90;;;;;;5119491;28;20464;-55
2022/09/05 04:45:52;;;;;;;5.70;5.20;;;15.50;82.50;;;;;;5119548;28;20536;-57
2022/09/05 04:48:22;;;;;;;6.30;5.50;;;15.50;39.60;;;;;;5121010;27;20464;-51
2022/09/05 04:51:08;;;;;;;5.50;5.00;;;15.50;29.40;;;;;;5120536;28;20476;-55
2022/09/05 04:54:08;;;;;;;6.90;6.30;;;15.50;54.70;;;;;;5120043;28;20436;-57
2022/09/05 04:56:44;;;;;;;6.10;5.50;;;15.40;60.30;;;;;;5107979;28;20959;-58
2022/09/05 04:59:19;;;;;;;6.23;5.63;;;15.40;82.10;;;;;;5119420;27;20459;-56
2022/09/05 05:01:52;;;;;;;6.00;5.50;;;15.40;78.40;;;;;;5133457;27;20449;-57
2022/09/05 05:04:24;;;;;;;7.70;5.70;;;15.40;65.30;;;;;;5120221;27;20430;-54
2022/09/05 05:07:04;;;;;;;6.60;5.17;;;15.40;50.20;;;;;;5118709;28;20566;-57
2022/09/05 05:09:37;;;;;;;6.03;5.50;;;15.40;65.00;;;;;;5118833;27;20463;-58
2022/09/05 05:12:16;;;;;;;8.13;5.10;;;15.40;45.30;;;;;;5128588;27;20430;-58
2022/09/05 05:14:52;;;;;;;6.07;5.57;;;15.40;52.10;;;;;;5131852;27;20471;-58
2022/09/05 05:17:32;;;;;;;6.00;5.50;;;15.40;54.20;;;;;;5134553;27;20453;-52
2022/09/05 05:20:09;;;;;;;7.63;5.60;;;15.50;68.60;;;;;;5136182;27;20576;-53
2022/09/05 05:22:47;;;;;;;5.90;5.40;;;15.50;44.80;;;;;;5129341;27;20521;-57
2022/09/05 05:25:15;;;;;;;5.93;5.37;;;15.60;22.80;;;;;;5130431;27;20515;-55
2022/09/05 05:27:47;;;;;;;7.03;5.63;;;15.60;7.50;;;;;;5133035;27;20557;-57
2022/09/05 05:30:27;;;;;;;6.13;5.63;;;15.60;8.30;;;;;;5128152;27;20903;-53
2022/09/05 05:32:57;;;;;;;5.77;5.27;;;15.60;7.50;;;;;;5119585;28;20554;-58
2022/09/05 05:35:27;;;;;;;5.57;5.10;;;15.70;1.00;;;;;;5124048;27;20479;-58
2022/09/05 05:38:07;;;;;;;5.90;5.40;;;15.70;1.00;;;;;;5139890;27;20527;-57
2022/09/05 05:40:36;;;;;;;6.70;5.40;;;15.70;1.00;;;;;;5139278;27;20465;-55
2022/09/05 05:43:20;;;;;;;6.40;5.80;;;15.80;1.00;;;;;;5136727;27;20847;-56
2022/09/05 05:45:57;;;;;;;6.40;5.80;;;15.90;1.00;;;;;;5131710;27;20446;-56
2022/09/05 05:48:34;;;;;;;8.10;5.13;;;16.00;1.00;;;;;;5128555;27;20455;-56
2022/09/05 05:51:30;;;;;;;5.73;5.00;;;16.00;1.00;;;;;;5128512;27;20453;-57
2022/09/05 05:54:03;;;;;;;5.37;4.87;;;16.00;1.00;;;;;;5133456;27;20531;-57
2022/09/05 05:56:52;;;;;;;5.67;5.17;;;16.00;1.00;;;;;;5132944;27;20534;-57
2022/09/05 05:59:34;;;;;;;6.37;5.77;;;16.10;1.00;;;;;;5119193;28;20462;-58
2022/09/05 06:03:01;;;;;;;6.40;5.53;;;16.20;1.00;;;;;;5119795;27;20574;-57
2022/09/05 06:05:58;;;;;;;5.40;4.90;;;16.40;1.00;;;;;;5052760;28;20918;-59
2022/09/05 06:08:52;;;;;;;5.93;5.43;;;16.60;1.00;;;;;;5052374;28;21139;-58
2022/09/05 06:11:55;;;;;;;5.80;5.30;;;16.90;1.00;;;;;;5126257;27;20942;-56
2022/09/05 06:14:47;;;;;;;6.10;5.60;;;17.10;1.00;;;;;;5107031;27;20523;-53
2022/09/05 06:17:56;;;;;;;5.67;4.93;;;17.30;1.00;;;;;;5128199;27;20455;-59
2022/09/05 06:21:07;;;;;;;8.30;5.20;;;17.50;1.00;;;;;;5134180;27;20458;-58
2022/09/05 06:24:08;;;;;;;7.13;5.40;;;17.80;1.00;;;;;;5096497;27;20466;-58
2022/09/05 06:27:10;;;;;;;5.93;4.90;;;18.20;1.00;;;;;;5096890;27;20458;-58
2022/09/05 06:29:54;;;;;;;4.70;4.30;;;18.40;1.00;;;;;;5089995;27;20470;-58
2022/09/05 06:32:34;;;;;;;5.47;4.93;;;18.70;1.00;;;;;;5116773;28;20499;-59
2022/09/05 06:35:29;;;;;;;4.70;4.30;;;19.00;1.00;;;;;;5117569;28;20836;-56
2022/09/05 06:38:22;;;;;;;5.03;4.53;;;19.30;99.90;;;;;;5118743;27;20516;-58
2022/09/05 06:41:02;;;;;;;5.10;4.60;;;19.50;99.90;;;;;;5138350;27;20522;-56
2022/09/05 06:43:48;;;;;;;4.30;3.90;;;19.90;99.90;;;;;;5138038;27;20552;-57
2022/09/05 06:46:29;;;;;;;4.23;3.83;;;20.10;99.90;;;;;;5138149;27;20524;-57
2022/09/05 06:49:05;;;;;;;4.60;4.20;;;20.40;99.90;;;;;;5132274;27;20526;-59
2022/09/05 06:52:22;;;;;;;4.60;4.10;;;20.70;99.90;;;;;;5117410;28;20459;-55
2022/09/05 06:55:14;;;;;;;7.47;4.13;;;21.00;99.90;;;;;;5118781;27;20460;-59
2022/09/05 06:58:32;;;;;;;4.53;4.23;;;21.30;99.90;;;;;;5117579;28;20464;-56
2022/09/05 07:01:05;;;;;;;4.77;4.00;;;21.60;99.90;;;;;;5104436;27;20557;-57
2022/09/05 07:03:54;;;;;;;4.53;4.13;;;21.70;99.90;;;;;;5121355;27;20434;-58
2022/09/05 07:06:30;;;;;;;3.67;3.33;;;22.20;99.90;;;;;;5121439;27;20444;-58
2022/09/05 07:09:05;;;;;;;5.47;3.80;;;22.80;99.90;;;;;;5138400;27;20478;-60
2022/09/05 07:11:40;;;;;;;5.10;4.10;;;23.00;99.90;;;;;;5137835;27;20429;-60
2022/09/05 07:14:24;;;;;;;5.43;3.43;;;23.50;99.90;;;;;;5124753;27;20564;-58
2022/09/05 07:16:56;;;;;;;3.87;3.50;;;23.60;99.90;;;;;;5135674;27;20542;-60
2022/09/05 07:19:32;;;;;;;3.90;3.60;;;23.70;99.90;;;;;;5136677;27;20852;-60
2022/09/05 07:22:27;;;;;;;4.03;3.70;;;24.00;99.90;;;;;;5133726;28;20486;-60
2022/09/05 07:24:56;;;;;;;3.17;2.87;;;24.10;99.90;;;;;;5124661;28;20520;-60
2022/09/05 07:27:34;;;;;;;3.67;3.37;;;24.30;99.90;;;;;;5137025;28;20823;-60
2022/09/05 07:30:02;;;;;;;3.00;2.80;;;24.50;99.90;;;;;;5136414;27;20462;-60
2022/09/05 07:32:34;;;;;;;3.80;3.43;;;24.90;99.90;;;;;;5137553;27;20454;-60
2022/09/05 07:35:05;;;;;;;3.63;3.33;;;25.00;99.90;;;;;;5132730;28;20456;-60
2022/09/05 07:37:39;;;;;;;3.73;3.23;;;25.00;99.90;;;;;;5128406;27;20445;-60
2022/09/05 07:40:14;;;;;;;4.03;3.73;;;25.30;99.90;;;;;;5134720;28;20464;-60
2022/09/05 07:42:44;;;;;;;3.00;2.70;;;25.70;99.90;;;;;;5132809;27;20656;-58
2022/09/05 07:45:15;;;;;;;2.90;2.70;;;25.80;99.90;;;;;;5115765;28;20554;-58
2022/09/05 07:47:50;;;;;;;3.40;3.10;;;25.90;99.90;;;;;;5115076;28;20888;-60
2022/09/05 07:50:20;;;;;;;4.13;3.10;;;26.00;99.90;;;;;;5116200;28;20469;-61
2022/09/05 07:52:49;;;;;;;2.97;2.77;;;26.40;99.90;;;;;;5116745;28;20437;-60
2022/09/05 07:55:25;;;;;;;3.87;3.30;;;26.40;99.90;;;;;;5128855;28;20469;-58
2022/09/05 07:57:58;;;;;;;4.03;3.63;;;26.60;99.90;;;;;;5135330;28;20458;-60
2022/09/05 08:00:30;;;;;;;4.37;3.37;;;26.50;99.90;;;;;;5137379;28;20523;-60
2022/09/05 08:03:00;;;;;;;3.80;3.50;;;26.70;99.90;;;;;;5138077;28;20458;-60
2022/09/05 08:05:42;;;;;;;5.20;3.50;;;27.10;99.90;;;;;;5135325;28;20462;-60
2022/09/05 08:08:12;;;;;;;3.03;2.83;;;27.30;99.90;;;;;;5135458;28;20462;-59
2022/09/05 08:10:45;;;;;;;3.80;2.90;;;27.60;99.90;;;;;;5135691;28;20474;-60
2022/09/05 08:13:15;;;;;;;3.40;3.20;;;27.60;99.90;;;;;;5120778;28;20438;-60
2022/09/05 08:15:47;;;;;;;3.60;3.30;;;27.80;99.90;;;;;;5116848;28;20585;-60
2022/09/05 08:18:24;;;;;;;3.30;3.00;;;28.10;99.90;;;;;;5117616;28;20455;-57
2022/09/05 08:20:57;;;;;;;3.27;2.50;;;28.20;99.90;;;;;;5120991;27;20880;-56
2022/09/05 08:23:47;;;;;;;3.43;3.00;;;28.30;99.90;;;;;;5120955;28;20455;-58
2022/09/05 08:26:21;;;;;;;3.67;3.37;;;28.40;99.90;;;;;;5126675;27;20462;-59
2022/09/05 08:28:55;;;;;;;3.50;3.17;;;28.50;99.90;;;;;;5128826;27;20534;-55
2022/09/05 08:31:28;;;;;;;5.73;3.30;;;28.70;99.90;;;;;;5127008;27;20542;-60
2022/09/05 08:33:59;;;;;;;4.13;3.50;;;28.80;99.90;;;;;;5133159;27;20823;-60
2022/09/05 08:36:35;;;;;;;4.10;2.83;;;29.10;99.90;;;;;;5140870;27;20465;-58
2022/09/05 08:39:09;;;;;;;3.50;3.20;;;29.30;99.90;;;;;;5141242;27;20494;-58
2022/09/05 08:41:48;;;;;;;3.57;3.27;;;29.40;99.90;;;;;;5126580;27;20863;-58
2022/09/05 08:44:19;;;;;;;2.87;2.67;;;29.60;99.90;;;;;;5121267;27;20499;-58
2022/09/05 08:46:52;;;;;;;3.80;3.50;;;29.50;99.90;;;;;;5120461;28;20554;-58
2022/09/05 08:49:38;;;;;;;2.93;2.63;;;29.60;99.90;;;;;;5137812;27;20493;-57
2022/09/05 08:52:15;;;;;;;3.20;2.90;;;30.00;99.90;;;;;;5126513;27;20460;-58
2022/09/05 08:54:53;;;;;;;4.00;3.60;;;30.10;99.90;;;;;;5129745;27;20460;-58
2022/09/05 08:57:45;;;;;;;3.17;2.97;;;30.20;99.90;;;;;;5120534;28;20464;-58
2022/09/05 09:00:16;;;;;;;2.80;2.60;;;30.50;99.90;;;;;;5119899;28;20555;-56
2022/09/05 09:03:05;;;;;;;3.63;3.40;;;30.90;99.90;;;;;;5120262;27;20548;-58
2022/09/05 09:06:04;;;;;;;3.47;3.07;;;30.90;99.90;;;;;;5119863;28;20463;-58
2022/09/05 09:08:49;;;;;;;3.17;2.97;;;31.10;99.90;;;;;;5119094;28;20479;-58
2022/09/05 09:11:33;;;;;;;2.93;2.63;;;31.00;99.90;;;;;;5119316;28;20434;-56
2022/09/05 09:14:26;;;;;;;5.43;2.97;;;31.20;99.90;;;;;;5119643;28;20491;-58
2022/09/05 09:17:03;;;;;;;3.73;3.20;;;31.30;99.90;;;;;;5120927;27;20455;-58
2022/09/05 09:19:44;;;;;;;7.43;3.33;;;31.50;99.90;;;;;;5119656;28;20729;-58
2022/09/05 09:22:18;;;;;;;3.53;3.13;;;31.30;99.90;;;;;;5122406;27;20514;-58
2022/09/05 09:24:56;;;;;;;3.83;2.90;;;31.40;99.90;;;;;;5139951;27;20472;-58
2022/09/05 09:27:36;;;;;;;3.47;3.17;;;31.30;99.90;;;;;;5138758;27;20508;-58
2022/09/05 09:30:06;;;;;;;3.80;3.50;;;31.60;99.90;;;;;;5139644;27;20477;-58
2022/09/05 09:32:46;;;;;;;2.80;2.60;;;31.60;99.90;;;;;;5136852;27;20474;-56
2022/09/05 09:35:23;;;;;;;2.90;2.70;;;31.60;99.90;;;;;;5119492;27;20888;-56
2022/09/05 09:38:27;;;;;;;3.17;2.87;;;31.80;99.90;;;;;;5119228;28;20496;-58
2022/09/05 09:41:35;;;;;;;4.00;2.83;;;31.80;99.90;;;;;;5106534;27;20438;-58
2022/09/05 09:44:52;;;;;;;3.40;2.80;;;32.10;99.90;;;;;;5128459;27;20552;-57
2022/09/05 09:47:40;;;;;;;2.90;2.70;;;32.50;99.90;;;;;;5138009;27;20867;-58
2022/09/05 09:50:27;;;;;;;3.33;2.40;;;32.60;99.90;;;;;;5138183;27;20931;-58
2022/09/05 09:53:42;;;;;;;3.30;3.10;;;32.80;99.90;;;;;;5137941;27;20541;-58
2022/09/05 09:56:32;;;;;;;2.60;2.40;;;32.90;99.90;;;;;;5075585;28;20456;-56
2022/09/05 09:59:43;;;;;;;3.73;3.13;;;32.60;99.90;;;;;;5118799;27;20463;-58
2022/09/05 10:02:33;;;;;;;3.37;2.63;;;32.90;99.90;;;;;;5117153;28;20496;-58
2022/09/05 10:05:34;;;;;;;2.83;2.63;;;33.40;99.90;;;;;;5124547;27;20520;-58
2022/09/05 10:08:25;;;;;;;2.70;2.50;;;33.70;99.90;;;;;;5108843;27;20529;-58
2022/09/05 10:11:28;;;;;;;3.37;3.07;;;33.40;99.90;;;;;;5129947;27;20456;-58
2022/09/05 10:14:26;;;;;;;3.13;2.93;;;32.20;99.90;;;;;;5124472;27;20904;-57
2022/09/05 10:17:16;;;;;;;3.37;2.80;;;31.30;99.90;;;;;;5118279;28;20462;-57
2022/09/05 10:20:15;;;;;;;3.50;3.00;;;31.50;99.90;;;;;;5119282;27;20830;-58
2022/09/05 10:23:10;;;;;;;3.30;3.00;;;32.30;99.90;;;;;;5118770;28;20490;-59
2022/09/05 10:26:12;;;;;;;5.23;3.23;;;32.90;99.90;;;;;;5125277;27;20462;-56
2022/09/05 10:28:53;;;;;;;2.50;2.30;;;32.60;99.90;;;;;;5131442;27;20545;-58
2022/09/05 10:31:36;;;;;;;3.00;2.80;;;32.40;99.90;;;;;;5136806;27;20953;-58
2022/09/05 10:34:17;;;;;;;2.33;2.13;;;31.80;99.90;;;;;;5136287;27;20466;-57
2022/09/05 10:36:51;;;;;;;3.80;3.30;;;31.40;99.90;;;;;;5125485;27;20546;-57
2022/09/05 10:39:22;;;;;;;2.87;2.67;;;30.80;99.90;;;;;;5131894;27;20775;-58
2022/09/05 10:41:57;;;;;;;3.67;3.00;;;30.20;99.90;;;;;;5136841;27;20789;-58
2022/09/05 10:44:37;;;;;;;3.43;3.13;;;29.90;99.90;;;;;;5138139;27;20464;-57
2022/09/05 10:47:23;;;;;;;4.27;3.30;;;29.70;99.90;;;;;;5128167;27;20467;-57
2022/09/05 10:50:03;;;;;;;3.50;3.20;;;29.50;99.90;;;;;;5117839;28;20810;-58
2022/09/05 10:52:37;;;;;;;2.93;2.73;;;29.50;99.90;;;;;;5117808;27;20503;-58
2022/09/05 10:55:17;;;;;;;2.53;2.33;;;30.30;99.90;;;;;;5118208;28;20456;-59
2022/09/05 10:57:58;;;;;;;3.47;2.87;;;30.70;99.90;;;;;;5129207;27;20458;-59
2022/09/05 11:00:53;;;;;;;3.30;2.90;;;31.60;99.90;;;;;;5137645;27;20557;-58
2022/09/05 11:03:30;;;;;;;4.03;3.70;;;32.70;99.90;;;;;;5136190;27;20533;-58
2022/09/05 11:05:59;;;;;;;2.73;2.47;;;32.90;99.90;;;;;;5138606;27;20439;-58
2022/09/05 11:08:37;;;;;;;3.10;2.90;;;32.60;99.90;;;;;;5123651;27;20786;-59
2022/09/05 11:11:14;;;;;;;2.90;2.70;;;32.50;99.90;;;;;;5117596;28;20498;-58
2022/09/05 11:13:46;;;;;;;2.57;2.37;;;31.50;99.90;;;;;;5116248;28;20907;-58
2022/09/05 11:16:26;;;;;;;3.17;2.87;;;30.80;99.90;;;;;;5115582;28;20459;-56
2022/09/05 11:19:02;;;;;;;3.10;2.87;;;30.50;99.90;;;;;;5116979;28;20545;-58
2022/09/05 11:21:46;;;;;;;3.07;2.83;;;30.00;99.90;;;;;;5115573;28;20466;-58
2022/09/05 11:24:30;;;;;;;3.30;3.10;;;29.70;99.90;;;;;;5116740;28;20464;-57
2022/09/05 11:27:00;;;;;;;2.87;2.67;;;29.60;99.90;;;;;;5116204;28;20534;-58
2022/09/05 11:29:39;;;;;;;3.07;2.87;;;29.30;99.90;;;;;;5129747;28;20458;-57
2022/09/05 11:32:38;;;;;;;5.67;2.30;;;29.10;99.90;;;;;;5135965;28;20840;-56
2022/09/05 11:35:19;;;;;;;2.83;2.63;;;29.30;99.90;;;;;;5122465;27;20498;-59
2022/09/05 11:38:19;;;;;;;2.93;2.73;;;30.10;99.90;;;;;;5137692;27;20739;-58
2022/09/05 11:41:26;;;;;;;2.80;2.60;;;31.00;99.90;;;;;;5102083;27;20466;-59
2022/09/05 11:44:24;;;;;;;4.60;2.80;;;31.60;99.90;;;;;;5137557;27;20451;-58
2022/09/05 11:47:09;;;;;;;3.00;2.60;;;32.20;99.90;;;;;;5137508;27;20505;-59
2022/09/05 11:49:51;;;;;;;2.70;2.50;;;32.80;99.90;;;;;;5127436;27;20455;-59
2022/09/05 11:53:11;;;;;;;3.13;2.80;;;33.20;99.90;;;;;;5119230;28;20545;-59
2022/09/05 11:56:06;;;;;;;2.90;2.70;;;33.40;99.90;;;;;;5120924;28;20447;-58
2022/09/05 11:59:08;;;;;;;3.03;2.63;;;32.50;99.90;;;;;;5121210;28;20462;-58
2022/09/05 12:01:46;;;;;;;2.50;2.30;;;30.80;99.90;;;;;;5106786;27;20462;-58
2022/09/05 12:04:49;;;;;;;2.67;2.47;;;30.50;99.90;;;;;;5141900;27;20462;-58
2022/09/05 12:07:42;;;;;;;3.13;2.93;;;30.40;99.90;;;;;;5117521;27;20799;-58
2022/09/05 12:10:29;;;;;;;3.00;2.70;;;30.30;99.90;;;;;;5140524;27;20455;-55
2022/09/05 12:13:18;;;;;;;2.97;2.77;;;30.20;99.90;;;;;;5139270;27;20793;-57
2022/09/05 12:15:46;;;;;;;2.70;2.50;;;31.00;99.90;;;;;;5141118;27;20487;-58
2022/09/05 12:18:26;;;;;;;5.50;5.00;;;32.20;99.90;;;;;;5138412;27;20421;-58
2022/09/05 12:21:01;;;;;;;4.67;4.30;;;32.60;99.90;;;;;;5122753;27;20458;-59
2022/09/05 12:23:43;;;;;;;3.00;2.80;;;32.70;99.90;;;;;;5124925;27;20459;-58
2022/09/05 12:26:21;;;;;;;3.73;2.83;;;32.70;99.90;;;;;;5128952;27;20765;-58
2022/09/05 12:28:54;;;;;;;3.17;2.83;;;32.00;99.90;;;;;;5128107;27;20450;-57
2022/09/05 12:31:27;;;;;;;3.20;2.60;;;31.50;99.90;;;;;;5127662;27;20466;-57
2022/09/05 12:33:59;;;;;;;3.13;2.77;;;31.20;99.90;;;;;;5129012;27;20444;-56
2022/09/05 12:36:35;;;;;;;3.10;2.87;;;30.80;99.90;;;;;;5129378;27;20932;-54
2022/09/05 12:39:24;;;;;;;2.83;2.63;;;30.50;99.90;;;;;;5127486;27;20465;-61
2022/09/05 12:42:01;;;;;;;3.30;3.10;;;30.10;99.90;;;;;;5128875;27;20566;-60
2022/09/05 12:44:46;;;;;;;3.57;3.27;;;29.50;99.90;;;;;;5125864;27;20465;-57
2022/09/05 12:47:16;;;;;;;6.13;3.50;;;29.30;99.90;;;;;;5127928;27;20454;-60
2022/09/05 12:49:54;;;;;;;3.03;2.50;;;28.80;99.90;;;;;;5125761;27;20546;-58
2022/09/05 12:52:39;;;;;;;2.67;2.47;;;28.60;99.90;;;;;;5126381;27;20463;-57
2022/09/05 12:55:18;;;;;;;2.47;2.27;;;29.60;99.90;;;;;;5126974;27;20546;-57
2022/09/05 12:57:55;;;;;;;2.63;2.43;;;30.90;99.90;;;;;;5126598;27;20496;-58
2022/09/05 13:00:26;;;;;;;2.43;2.30;;;32.00;99.90;;;;;;5119416;27;20463;-58
2022/09/05 13:03:00;;;;;;;3.23;3.03;;;32.90;99.90;;;;;;5119094;27;20486;-58
2022/09/05 13:05:50;;;;;;;4.30;2.80;;;33.30;99.90;;;;;;5132929;27;20449;-58
2022/09/05 13:08:21;;;;;;;2.93;2.73;;;33.60;99.90;;;;;;5135075;27;20498;-58
2022/09/05 13:10:53;;;;;;;3.07;2.40;;;33.00;99.90;;;;;;5136026;27;20425;-58
2022/09/05 13:13:32;;;;;;;2.60;2.40;;;32.30;99.90;;;;;;5118608;27;20448;-58
2022/09/05 13:16:06;;;;;;;3.40;3.20;;;31.70;99.90;;;;;;5118414;27;20553;-58
2022/09/05 13:18:39;;;;;;;2.47;2.37;;;31.80;99.90;;;;;;5118488;27;20454;-58
2022/09/05 13:21:12;;;;;;;2.90;2.70;;;32.60;99.90;;;;;;5129757;27;20548;-59
2022/09/05 13:23:47;;;;;;;5.10;2.80;;;33.30;99.90;;;;;;5135550;27;20940;-58
2022/09/05 13:26:18;;;;;;;2.77;2.63;;;33.70;99.90;;;;;;5135208;27;20425;-58
2022/09/05 13:28:51;;;;;;;2.47;2.30;;;34.10;99.90;;;;;;5129117;27;20447;-58
2022/09/05 13:31:53;;;;;;;5.00;3.00;;;34.10;99.90;;;;;;5128733;27;20473;-57
2022/09/05 13:34:25;;;;;;;3.10;2.67;;;34.30;99.90;;;;;;5123222;27;20450;-58
2022/09/05 13:36:59;;;;;;;2.20;2.10;;;34.60;99.90;;;;;;5135631;27;20456;-58
2022/09/05 13:39:37;;;;;;;2.90;2.47;;;34.50;99.90;;;;;;5129856;27;20477;-56
2022/09/05 13:42:06;;;;;;;2.33;2.23;;;34.30;99.90;;;;;;5131825;27;20482;-58
2022/09/05 13:44:45;;;;;;;2.50;2.17;;;34.60;99.90;;;;;;5131528;27;20437;-58
2022/09/05 13:47:26;;;;;;;2.70;2.40;;;34.70;99.90;;;;;;5122122;27;20828;-58
2022/09/05 13:50:19;;;;;;;2.73;2.53;;;34.40;99.90;;;;;;5121468;27;20458;-57
2022/09/05 13:52:51;;;;;;;2.83;2.50;;;34.60;99.90;;;;;;5129518;27;20433;-58
2022/09/05 13:55:24;;;;;;;2.60;2.40;;;34.60;99.90;;;;;;5131477;27;20430;-58
2022/09/05 13:57:56;;;;;;;2.67;2.47;;;34.50;99.90;;;;;;5126219;27;20527;-57
2022/09/05 14:01:05;;;;;;;2.97;2.77;;;34.40;99.90;;;;;;5124601;27;20541;-57
2022/09/05 14:04:23;;;;;;;2.43;2.27;;;34.30;99.90;;;;;;5117188;27;20479;-57
2022/09/05 14:07:29;;;;;;;4.10;2.20;;;33.80;99.90;;;;;;5120719;27;20452;-57
2022/09/05 14:10:16;;;;;;;2.47;2.30;;;33.70;99.90;;;;;;5109049;27;20473;-56